Weather History for Vlieland, Netherlands

Change the Weather History Date:

Wednesday, February 20, 2013

  Actual Average Record
Temperature  
Mean Temperature 34 °F -  
Max Temperature 37 °F 42 °F 50 °F (2014)
Min Temperature 32 °F 36 °F 26 °F (2003)
Degree Days  
Heating Degree Days 30    
Moisture  
Dew Point 24 °F    
Average Humidity 68    
Maximum Humidity 75    
Minimum Humidity 56    
Precipitation  
Precipitation 0.00 in - - ()
Sea Level Pressure  
Sea Level Pressure 30.32 in    
Wind  
Wind Speed 15 mph ()    
Max Wind Speed 21 mph    
Max Gust Speed -    
Visibility 6.2 miles    
Events      
Averages and records for this station are not official NWS values.
T = Trace of Precipitation, MM = Missing Value Source: Averaged Metar Reports

Daily Weather History Graph

Daily Weather History Graph

Search for Another Location

Airport:

Trip Planner

Search our weather history database for the weather conditions in past years. The results will help you decide how hot, cold, wet, or windy it might be!

Date:

Astronomy

Feb. 20, 2013 Rise Set
Actual Time 7:47 AM CET 6:01 PM CET
Civil Twilight 7:12 AM CET 6:36 PM CET
Nautical Twilight 6:31 AM CET 7:17 PM CET
Astronomical Twilight 5:51 AM CET 7:57 PM CET
Moon 12:42 PM CET (2/20) 4:22 AM CET (2/20)
Length of Visible Light 11h 24m
Length of Day
10h 13m
Waxing Gibbous, 74% of the Moon is Illuminated
Feb 20
Waxing Gibbous
Feb 25
Full
Mar 4
Last Quarter
Mar 11
New
Mar 19
First Quarter

Hourly Weather History & Observations

Time (CET) Temp. Windchill Dew Point Humidity Pressure Visibility Wind Dir Wind Speed Gust Speed Precip Events Conditions
12:25 AM 33.8 °F 23.5 °F 26.6 °F 75% 30.21 in 6.2 mi East 16.1 mph - N/A   Overcast
1:25 AM 33.8 °F 23.5 °F 24.8 °F 70% 30.24 in 6.2 mi East 16.1 mph - N/A   Overcast
1:55 AM 33.8 °F 23.5 °F 24.8 °F 70% 30.24 in 6.2 mi East 16.1 mph - N/A   Overcast
2:25 AM 33.8 °F 23.2 °F 23.0 °F 65% 30.24 in 6.2 mi ENE 17.3 mph - N/A   Overcast
2:55 AM 33.8 °F 22.8 °F 23.0 °F 65% 30.24 in 6.2 mi East 18.4 mph - N/A   Overcast
3:25 AM 33.8 °F 23.2 °F 23.0 °F 65% 30.24 in 6.2 mi East 17.3 mph - N/A   Overcast
3:55 AM 33.8 °F 23.9 °F 23.0 °F 65% 30.27 in 6.2 mi East 15.0 mph - N/A   Overcast
4:25 AM 33.8 °F 23.9 °F 24.8 °F 70% 30.27 in 6.2 mi East 15.0 mph - N/A   Overcast
4:42 AM 33.8 °F 23.5 °F 24.8 °F 70% 30.27 in 6.2 mi East 16.1 mph - N/A   Overcast
4:55 AM 33.8 °F 23.2 °F 24.8 °F 70% 30.27 in 6.2 mi East 17.3 mph - N/A   Overcast
5:00 AM 33.8 °F 23.2 °F 24.8 °F 70% 30.27 in 6.2 mi East 17.3 mph - N/A   Overcast
5:25 AM 32.0 °F 20.8 °F 24.8 °F 75% 30.27 in 6.2 mi East 17.3 mph - N/A   Overcast
5:55 AM 33.8 °F 23.9 °F 24.8 °F 70% 30.27 in 6.2 mi East 15.0 mph - N/A   Overcast
6:25 AM 32.0 °F 21.2 °F 24.8 °F 75% 30.27 in 6.2 mi East 16.1 mph - N/A   Overcast
6:55 AM 32.0 °F 21.6 °F 24.8 °F 75% 30.30 in 6.2 mi East 15.0 mph - N/A   Overcast
7:25 AM 33.8 °F 23.5 °F 24.8 °F 70% 30.30 in 6.2 mi East 16.1 mph - N/A   Overcast
7:36 AM 33.8 °F 23.5 °F 24.8 °F 70% 30.30 in 6.2 mi East 16.1 mph - N/A   Overcast
7:39 AM 33.8 °F 23.5 °F 24.8 °F 70% 30.30 in 6.2 mi East 16.1 mph - N/A   Overcast
7:47 AM 33.8 °F 23.9 °F 24.8 °F 70% 30.30 in 6.2 mi East 15.0 mph - N/A   Overcast
7:55 AM 33.8 °F 23.9 °F 24.8 °F 70% 30.30 in 6.2 mi East 15.0 mph - N/A   Overcast
8:25 AM 33.8 °F 24.3 °F 24.8 °F 70% 30.33 in 6.2 mi East 13.8 mph - N/A   Overcast
8:55 AM 33.8 °F 23.9 °F 24.8 °F 70% 30.33 in 6.2 mi East 15.0 mph - N/A   Overcast
9:07 AM 33.8 °F 23.9 °F 24.8 °F 70% 30.33 in 6.2 mi East 15.0 mph - N/A   Overcast
9:25 AM 33.8 °F 23.9 °F 24.8 °F 70% 30.33 in 6.2 mi East 15.0 mph - N/A   Overcast
9:35 AM 33.8 °F 23.9 °F 24.8 °F 70% 30.33 in 6.2 mi East 15.0 mph - N/A   Overcast
9:39 AM 33.8 °F 23.5 °F 24.8 °F 70% 30.33 in 6.2 mi East 16.1 mph - N/A   Overcast
9:46 AM 33.8 °F 23.2 °F 26.6 °F 75% 30.33 in 6.2 mi East 17.3 mph - N/A   Overcast
9:55 AM 33.8 °F 23.5 °F 24.8 °F 70% 30.33 in 6.2 mi East 16.1 mph - N/A   Overcast
10:07 AM 33.8 °F 23.5 °F 24.8 °F 70% 30.33 in 6.2 mi East 16.1 mph - N/A   Overcast
10:11 AM 33.8 °F 23.5 °F 24.8 °F 70% 30.33 in 6.2 mi East 16.1 mph - N/A   Overcast
10:16 AM 33.8 °F 23.2 °F 24.8 °F 70% 30.33 in 6.2 mi East 17.3 mph - N/A   Overcast
10:25 AM 33.8 °F 23.2 °F 26.6 °F 75% 30.33 in 6.2 mi East 17.3 mph - N/A   Overcast
10:55 AM 33.8 °F 23.2 °F 24.8 °F 70% 30.33 in 6.2 mi East 17.3 mph - N/A   Overcast
11:25 AM 37.4 °F 27.8 °F 23.0 °F 56% 30.36 in 6.2 mi East 17.3 mph - N/A   Mostly Cloudy
11:55 AM 35.6 °F 24.5 °F 21.2 °F 56% 30.36 in 6.2 mi ENE 20.7 mph - N/A   Mostly Cloudy
12:25 PM 35.6 °F 24.8 °F 23.0 °F 60% 30.36 in 6.2 mi ENE 19.6 mph - N/A   Mostly Cloudy
12:55 PM 35.6 °F 24.8 °F 23.0 °F 60% 30.36 in 6.2 mi East 19.6 mph - N/A   Overcast
1:25 PM 35.6 °F 25.9 °F 24.8 °F 65% 30.36 in 6.2 mi East 16.1 mph - N/A   Overcast
1:55 PM 33.8 °F 23.5 °F 26.6 °F 75% 30.36 in 6.2 mi ENE 16.1 mph - N/A   Overcast
2:25 PM 33.8 °F 24.3 °F 26.6 °F 75% 30.33 in 6.2 mi East 13.8 mph - N/A   Overcast
2:55 PM 35.6 °F 25.9 °F 23.0 °F 60% 30.33 in 6.2 mi ENE 16.1 mph - N/A   Overcast
3:25 PM 33.8 °F 22.8 °F 23.0 °F 65% 30.33 in 6.2 mi ENE 18.4 mph - N/A   Mostly Cloudy
3:55 PM 35.6 °F 24.8 °F 23.0 °F 60% 30.33 in 6.2 mi ENE 19.6 mph - N/A   Overcast
4:25 PM 33.8 °F 23.2 °F 21.2 °F 60% 30.33 in 6.2 mi ENE 17.3 mph - N/A   Overcast
4:55 PM 35.6 °F 26.2 °F 23.0 °F 60% 30.33 in 6.2 mi East 15.0 mph - N/A   Overcast
5:25 PM 33.8 °F 23.5 °F 24.8 °F 70% 30.33 in 6.2 mi ENE 16.1 mph - N/A   Overcast
5:55 PM 33.8 °F 23.9 °F 23.0 °F 65% 30.33 in 6.2 mi ENE 15.0 mph - N/A   Overcast
6:25 PM 33.8 °F 23.9 °F 23.0 °F 65% 30.36 in 6.2 mi ENE 15.0 mph - N/A   Overcast
6:55 PM 33.8 °F 22.5 °F 23.0 °F 65% 30.36 in 6.2 mi East 19.6 mph - N/A   Overcast
7:25 PM 33.8 °F 23.5 °F 23.0 °F 65% 30.36 in 6.2 mi ENE 16.1 mph - N/A   Overcast
7:55 PM 33.8 °F 23.2 °F 23.0 °F 65% 30.36 in 6.2 mi East 17.3 mph - N/A   Overcast
8:25 PM 33.8 °F 23.2 °F 23.0 °F 65% 30.36 in 6.2 mi East 17.3 mph - N/A   Overcast
8:55 PM 33.8 °F 24.3 °F 23.0 °F 65% 30.36 in 6.2 mi East 13.8 mph - N/A   Overcast
9:25 PM 33.8 °F 23.9 °F 23.0 °F 65% 30.36 in 6.2 mi East 15.0 mph - N/A   Overcast
9:55 PM 33.8 °F 23.9 °F 23.0 °F 65% 30.36 in 6.2 mi East 15.0 mph - N/A   Overcast
10:25 PM 33.8 °F 23.9 °F 24.8 °F 70% 30.36 in 6.2 mi East 15.0 mph - N/A   Overcast
10:55 PM 33.8 °F 23.5 °F 24.8 °F 70% 30.36 in 6.2 mi East 16.1 mph - N/A   Overcast
11:25 PM 32.0 °F 22.1 °F 24.8 °F 75% 30.36 in 6.2 mi East 13.8 mph - N/A   Overcast
11:55 PM 32.0 °F 22.5 °F 24.8 °F 75% 30.36 in 6.2 mi East 12.7 mph - N/A   Overcast